createdAt,value
2023-07-15T00:01:08.238Z,69.07
2023-07-15T00:02:11.252Z,68.61
2023-07-15T00:03:14.752Z,68.53
2023-07-15T00:04:16.759Z,69.19
2023-07-15T00:05:21.813Z,69.04
2023-07-15T00:06:25.394Z,69.31
2023-07-15T00:07:26.983Z,68.83
2023-07-15T00:08:29.034Z,69.04
2023-07-15T00:09:31.299Z,69.21
2023-07-15T00:10:38.287Z,69.15
2023-07-15T00:11:45.406Z,68.65
2023-07-15T00:12:47.210Z,68.53
2023-07-15T00:13:48.768Z,68.06
2023-07-15T00:14:51.221Z,67.58
2023-07-15T00:15:54.622Z,67.57
2023-07-15T00:16:57.007Z,67.29
2023-07-15T00:17:58.674Z,66.66
2023-07-15T00:19:00.410Z,67.04
2023-07-15T00:20:02.546Z,67.37
2023-07-15T00:21:16.693Z,67.95
2023-07-15T00:22:18.266Z,68.12
2023-07-15T00:23:22.623Z,68.00
2023-07-15T00:24:24.948Z,68.03
2023-07-15T00:25:26.796Z,67.84
2023-07-15T00:26:31.249Z,68.11
2023-07-15T00:27:35.236Z,67.65
2023-07-15T00:28:37.610Z,67.94
2023-07-15T00:29:40.210Z,67.52
2023-07-15T00:30:42.118Z,68.43
2023-07-15T00:31:45.347Z,69.44
2023-07-15T00:32:49.226Z,71.12
2023-07-15T00:33:50.963Z,72.32
2023-07-15T00:34:52.572Z,73.36
2023-07-15T00:35:54.280Z,73.50
2023-07-15T00:36:55.957Z,73.57
2023-07-15T00:37:59.918Z,74.58
2023-07-15T00:39:01.536Z,74.96
2023-07-15T00:40:05.109Z,75.05
2023-07-15T00:41:13.616Z,74.74
2023-07-15T00:42:21.018Z,75.00
2023-07-15T00:43:57.701Z,76.19
2023-07-15T00:44:59.132Z,75.83
2023-07-15T00:46:19.446Z,75.55
2023-07-15T00:47:40.840Z,76.27
2023-07-15T00:48:52.024Z,76.85
2023-07-15T00:49:54.208Z,77.39
2023-07-15T00:50:55.806Z,77.72
2023-07-15T00:52:10.964Z,77.45
2023-07-15T00:53:13.614Z,77.64
2023-07-15T00:54:15.651Z,77.51
2023-07-15T00:55:17.320Z,77.76
2023-07-15T00:56:19.081Z,77.72
2023-07-15T00:57:22.742Z,77.60
2023-07-15T00:58:24.522Z,78.19
2023-07-15T00:59:26.306Z,77.83
2023-07-15T01:00:28.175Z,78.02
2023-07-15T01:01:30.787Z,77.97
2023-07-15T01:02:32.601Z,78.02
2023-07-15T01:03:34.398Z,77.91
2023-07-15T01:04:36.761Z,77.94
2023-07-15T01:05:39.675Z,78.07
2023-07-15T01:06:43.020Z,77.87
2023-07-15T01:07:44.631Z,77.29
2023-07-15T01:08:46.172Z,77.18
2023-07-15T01:09:48.563Z,76.39
2023-07-15T01:10:50.503Z,76.38
2023-07-15T01:11:52.177Z,76.69
2023-07-15T01:12:53.991Z,76.77
2023-07-15T01:13:55.601Z,76.92
2023-07-15T01:14:57.173Z,76.72
2023-07-15T01:15:58.791Z,77.11
2023-07-15T01:17:00.460Z,77.26
2023-07-15T01:18:02.177Z,77.27
2023-07-15T01:19:06.547Z,76.97
2023-07-15T01:20:08.706Z,76.49
2023-07-15T01:21:12.266Z,76.17
2023-07-15T01:22:14.220Z,75.82
2023-07-15T01:23:15.788Z,75.47
2023-07-15T01:24:19.072Z,75.20
2023-07-15T01:25:20.772Z,75.64
2023-07-15T01:26:22.420Z,75.78
2023-07-15T01:27:24.048Z,75.19
2023-07-15T01:28:25.729Z,74.85
2023-07-15T01:29:27.407Z,75.44
2023-07-15T01:30:30.712Z,75.02
2023-07-15T01:31:33.312Z,75.56
2023-07-15T01:32:34.966Z,75.46
2023-07-15T01:33:36.610Z,75.46
2023-07-15T01:34:38.245Z,74.86
2023-07-15T01:35:39.800Z,75.08
2023-07-15T01:36:41.452Z,76.01
2023-07-15T01:37:43.052Z,75.82
2023-07-15T01:38:44.619Z,75.51
2023-07-15T01:39:48.627Z,75.53
2023-07-15T01:40:50.297Z,75.03
2023-07-15T01:41:51.868Z,75.48
2023-07-15T01:42:53.508Z,75.78
2023-07-15T01:43:55.248Z,75.56
2023-07-15T01:44:56.871Z,76.25
2023-07-15T01:45:59.229Z,76.37
2023-07-15T01:47:01.432Z,76.46
2023-07-15T01:48:03.445Z,76.37
2023-07-15T01:49:05.210Z,77.16
2023-07-15T01:50:07.161Z,77.48
2023-07-15T01:51:08.802Z,78.17
2023-07-15T01:52:10.388Z,77.95
2023-07-15T01:53:12.018Z,78.33
2023-07-15T01:54:13.675Z,78.48
2023-07-15T01:55:15.608Z,79.18
2023-07-15T01:56:17.217Z,79.44
2023-07-15T01:57:18.786Z,79.52
2023-07-15T01:58:21.962Z,79.62
2023-07-15T01:59:23.566Z,79.81
2023-07-15T02:00:25.202Z,79.72
2023-07-15T02:01:28.057Z,79.15
2023-07-15T02:02:30.557Z,78.93
2023-07-15T02:03:32.263Z,78.31
2023-07-15T02:04:34.094Z,78.02
2023-07-15T02:05:35.773Z,77.46
2023-07-15T02:06:37.555Z,77.35
2023-07-15T02:07:39.445Z,77.36
2023-07-15T02:08:41.099Z,76.79
2023-07-15T02:09:42.920Z,76.72
2023-07-15T02:10:48.439Z,76.56
2023-07-15T02:11:50.399Z,76.12
2023-07-15T02:12:52.061Z,76.20
2023-07-15T02:13:53.689Z,76.39
2023-07-15T02:14:55.730Z,76.66
2023-07-15T02:15:57.280Z,77.12
2023-07-15T02:16:59.440Z,77.30
2023-07-15T02:18:01.189Z,77.50
2023-07-15T02:19:03.816Z,78.25
2023-07-15T02:20:07.524Z,78.37
2023-07-15T02:21:10.341Z,78.58
2023-07-15T02:22:11.939Z,78.73
2023-07-15T02:23:13.562Z,78.92
2023-07-15T02:24:15.249Z,78.95
2023-07-15T02:25:17.807Z,78.95
2023-07-15T02:26:19.645Z,78.71
2023-07-15T02:27:21.235Z,78.84
2023-07-15T02:28:27.651Z,78.89
2023-07-15T02:29:29.194Z,78.79
2023-07-15T02:30:31.367Z,78.79
2023-07-15T02:31:33.026Z,79.26
2023-07-15T02:32:42.591Z,79.18
2023-07-15T02:33:44.448Z,79.01
2023-07-15T02:34:46.022Z,79.25
2023-07-15T02:35:47.692Z,78.89
2023-07-15T02:36:49.400Z,78.49
2023-07-15T02:37:51.064Z,78.87
2023-07-15T02:38:52.660Z,78.54
2023-07-15T02:39:54.288Z,78.40
2023-07-15T02:40:56.443Z,78.75
2023-07-15T02:41:58.037Z,78.66
2023-07-15T02:42:59.658Z,78.98
2023-07-15T02:44:01.267Z,78.80
2023-07-15T02:45:07.359Z,78.76
2023-07-15T02:46:09.151Z,79.08
2023-07-15T02:47:10.766Z,78.31
2023-07-15T02:48:12.908Z,77.81
2023-07-15T02:49:14.533Z,77.26
2023-07-15T02:50:16.148Z,77.09
2023-07-15T02:51:18.505Z,76.84
2023-07-15T02:52:20.081Z,77.01
2023-07-15T02:53:21.798Z,76.78
2023-07-15T02:54:23.446Z,76.72
2023-07-15T02:55:26.327Z,76.70
2023-07-15T02:56:28.130Z,76.48
2023-07-15T02:57:29.905Z,76.05
2023-07-15T02:58:31.494Z,76.05
2023-07-15T02:59:34.940Z,75.77
2023-07-15T03:00:39.292Z,75.55
2023-07-15T03:01:40.849Z,75.12
2023-07-15T03:02:46.119Z,74.83
2023-07-15T03:03:47.778Z,74.87
2023-07-15T03:04:50.047Z,74.49
2023-07-15T03:05:52.363Z,74.94
2023-07-15T03:06:56.667Z,74.58
2023-07-15T03:07:58.307Z,74.57
2023-07-15T03:09:00.167Z,74.32
2023-07-15T03:10:02.046Z,73.71
2023-07-15T03:11:07.467Z,73.96
2023-07-15T03:12:13.188Z,74.32
2023-07-15T03:13:14.887Z,74.04
2023-07-15T03:14:16.511Z,74.46
2023-07-15T03:15:18.603Z,74.32
2023-07-15T03:16:23.511Z,74.38
2023-07-15T03:17:25.358Z,74.04
2023-07-15T03:18:27.601Z,73.87
2023-07-15T03:19:31.411Z,74.34
2023-07-15T03:20:32.994Z,74.55
2023-07-15T03:21:34.593Z,74.74
2023-07-15T03:22:36.204Z,75.78
2023-07-15T03:23:37.830Z,76.41
2023-07-15T03:24:39.537Z,76.72
2023-07-15T03:25:41.132Z,77.43
2023-07-15T03:26:42.773Z,78.08
2023-07-15T03:27:44.374Z,80.22
2023-07-15T03:28:45.965Z,81.77
2023-07-15T03:29:50.246Z,83.17
2023-07-15T03:30:53.082Z,83.67
2023-07-15T03:31:54.768Z,84.14
2023-07-15T03:32:58.376Z,84.71
2023-07-15T03:34:00.631Z,85.20
2023-07-15T03:35:02.348Z,85.31
2023-07-15T03:36:05.654Z,85.33
2023-07-15T03:37:07.324Z,85.70
2023-07-15T03:38:09.004Z,86.13
2023-07-15T03:39:10.643Z,86.50
2023-07-15T03:40:13.705Z,86.48
2023-07-15T03:41:15.600Z,86.91
2023-07-15T03:42:17.302Z,87.40
2023-07-15T03:43:18.936Z,87.65
2023-07-15T03:44:20.498Z,88.30
2023-07-15T03:45:22.121Z,88.37
2023-07-15T03:46:24.901Z,88.23
2023-07-15T03:47:26.626Z,88.55
2023-07-15T03:48:28.529Z,88.45
2023-07-15T03:49:30.139Z,88.49
2023-07-15T03:50:31.805Z,88.33
2023-07-15T03:51:35.420Z,88.83
2023-07-15T03:52:37.062Z,88.48
2023-07-15T03:53:38.702Z,88.72
2023-07-15T03:54:40.305Z,89.15
2023-07-15T03:55:41.950Z,89.47
2023-07-15T03:56:43.713Z,89.82
2023-07-15T03:57:45.298Z,89.28
2023-07-15T03:58:47.118Z,88.99
2023-07-15T03:59:48.668Z,89.33
2023-07-15T04:00:50.242Z,89.57
2023-07-15T04:01:51.976Z,89.99
2023-07-15T04:02:55.464Z,90.21
2023-07-15T04:03:57.205Z,88.15
2023-07-15T04:04:58.911Z,87.97
2023-07-15T04:06:00.561Z,87.17
2023-07-15T04:07:02.361Z,86.84
2023-07-15T04:08:04.627Z,86.36
2023-07-15T04:09:06.548Z,85.87
2023-07-15T04:10:08.581Z,85.24
2023-07-15T04:11:10.265Z,85.26
2023-07-15T04:12:12.281Z,85.04
2023-07-15T04:13:14.486Z,85.07
2023-07-15T04:14:18.438Z,84.30
2023-07-15T04:15:20.104Z,84.55
2023-07-15T04:16:21.739Z,83.53
2023-07-15T04:17:23.954Z,81.83
2023-07-15T04:18:26.178Z,82.21
2023-07-15T04:19:27.775Z,81.98
2023-07-15T04:20:29.649Z,82.41
2023-07-15T04:21:31.283Z,81.99
2023-07-15T04:22:32.987Z,81.07
2023-07-15T04:23:34.813Z,80.39
2023-07-15T04:24:36.438Z,79.96
2023-07-15T04:25:39.410Z,80.28
2023-07-15T04:26:42.109Z,80.60
2023-07-15T04:27:43.731Z,80.43
2023-07-15T04:28:45.297Z,79.75
2023-07-15T04:29:46.885Z,77.52
2023-07-15T04:30:48.585Z,75.81
2023-07-15T04:31:50.244Z,76.76
2023-07-15T04:32:51.961Z,76.80
2023-07-15T04:33:55.113Z,76.94
2023-07-15T04:34:56.695Z,77.51
2023-07-15T04:35:58.775Z,77.27
2023-07-15T04:37:00.382Z,77.46
2023-07-15T04:38:01.929Z,77.45
2023-07-15T04:39:03.597Z,77.38
2023-07-15T04:40:06.077Z,77.30
2023-07-15T04:41:07.941Z,76.87
2023-07-15T04:42:09.505Z,76.35
2023-07-15T04:43:11.103Z,76.61
2023-07-15T04:44:12.713Z,76.53
2023-07-15T04:45:14.373Z,77.03
2023-07-15T04:46:16.346Z,76.85
2023-07-15T04:47:18.898Z,76.67
2023-07-15T04:48:20.964Z,76.24
2023-07-15T04:49:23.506Z,76.55
2023-07-15T04:50:25.287Z,75.89
2023-07-15T04:51:27.002Z,75.88
2023-07-15T04:52:28.584Z,75.21
2023-07-15T04:53:30.294Z,75.59
2023-07-15T04:54:31.884Z,75.31
2023-07-15T04:55:33.633Z,75.17
2023-07-15T04:56:36.069Z,74.92
2023-07-15T04:57:37.735Z,74.92
2023-07-15T04:58:42.123Z,74.62
2023-07-15T04:59:44.367Z,74.38
2023-07-15T05:00:47.361Z,73.30
2023-07-15T05:01:49.121Z,73.11
2023-07-15T05:02:51.054Z,73.29
2023-07-15T05:03:52.787Z,72.24
2023-07-15T05:04:54.631Z,72.18
2023-07-15T05:05:56.227Z,71.36
2023-07-15T05:06:58.161Z,70.87
2023-07-15T05:08:14.121Z,70.02
2023-07-15T05:09:15.688Z,69.52
2023-07-15T05:10:17.300Z,68.94
2023-07-15T05:11:20.436Z,68.76
2023-07-15T05:12:22.036Z,67.95
2023-07-15T05:13:25.009Z,67.97
2023-07-15T05:14:26.949Z,66.90
2023-07-15T05:15:29.663Z,66.34
2023-07-15T05:16:31.348Z,65.29
2023-07-15T05:17:33.091Z,64.32
2023-07-15T05:18:34.767Z,64.38
2023-07-15T05:19:36.478Z,64.12
2023-07-15T05:20:38.914Z,64.32
2023-07-15T05:21:40.658Z,64.58
2023-07-15T05:22:42.974Z,64.01
2023-07-15T05:23:44.731Z,63.82
2023-07-15T05:24:46.424Z,63.55
2023-07-15T05:25:48.026Z,63.41
2023-07-15T05:26:49.588Z,62.89
2023-07-15T05:27:51.770Z,63.44
2023-07-15T05:28:53.449Z,63.90
2023-07-15T05:29:54.986Z,63.68
2023-07-15T05:30:58.720Z,62.76
2023-07-15T05:32:00.379Z,62.06
2023-07-15T05:33:02.131Z,62.39
2023-07-15T05:34:03.798Z,62.11
2023-07-15T05:35:06.252Z,62.37
2023-07-15T05:36:09.137Z,61.88
2023-07-15T05:37:10.817Z,61.45
2023-07-15T05:38:12.398Z,62.42
2023-07-15T05:39:15.105Z,62.39
2023-07-15T05:40:16.801Z,62.37
2023-07-15T05:41:18.573Z,62.21
2023-07-15T05:42:21.241Z,61.51
2023-07-15T05:43:22.946Z,61.22
2023-07-15T05:44:24.536Z,61.25
2023-07-15T05:45:26.547Z,61.03
2023-07-15T05:46:28.206Z,60.53
2023-07-15T05:47:29.942Z,60.41
2023-07-15T05:48:35.042Z,60.34
2023-07-15T05:49:37.376Z,61.22
2023-07-15T05:50:39.959Z,61.95
2023-07-15T05:51:41.530Z,62.13
2023-07-15T05:52:43.177Z,61.59
2023-07-15T05:53:44.763Z,62.31
2023-07-15T05:54:46.384Z,61.49
2023-07-15T05:55:48.127Z,61.46
2023-07-15T05:56:49.677Z,60.97
2023-07-15T05:57:51.337Z,61.61
2023-07-15T05:58:53.044Z,61.98
2023-07-15T05:59:54.840Z,61.44
2023-07-15T06:00:56.644Z,61.23
2023-07-15T06:01:58.271Z,61.11
2023-07-15T06:02:59.910Z,61.33
2023-07-15T06:04:01.662Z,61.20
2023-07-15T06:05:03.367Z,60.64
2023-07-15T06:06:05.105Z,60.07
2023-07-15T06:07:06.782Z,58.91
2023-07-15T06:08:09.364Z,57.88
2023-07-15T06:09:11.017Z,56.93
2023-07-15T06:10:12.746Z,56.95
2023-07-15T06:11:14.709Z,57.25
2023-07-15T06:12:16.491Z,56.13
2023-07-15T06:13:18.181Z,55.34
2023-07-15T06:14:19.859Z,56.00
2023-07-15T06:15:21.554Z,56.05
2023-07-15T06:16:23.174Z,56.17
2023-07-15T06:17:25.062Z,54.98
2023-07-15T06:18:26.835Z,55.65
2023-07-15T06:19:28.834Z,55.06
2023-07-15T06:20:30.463Z,54.66
2023-07-15T06:21:32.088Z,54.17
2023-07-15T06:22:33.734Z,54.89
2023-07-15T06:23:35.648Z,54.40
2023-07-15T06:24:37.289Z,54.20
2023-07-15T06:25:39.326Z,54.12
2023-07-15T06:26:40.876Z,54.48
2023-07-15T06:27:42.596Z,54.90
2023-07-15T06:28:44.299Z,54.72
2023-07-15T06:29:48.487Z,54.22
2023-07-15T06:30:51.399Z,53.24
2023-07-15T06:31:53.024Z,54.59
2023-07-15T06:32:54.669Z,54.40
2023-07-15T06:33:56.242Z,53.15
2023-07-15T06:34:57.771Z,53.08
2023-07-15T06:35:59.405Z,52.36
2023-07-15T06:37:01.082Z,53.10
2023-07-15T06:38:02.652Z,53.11
2023-07-15T06:39:04.401Z,53.02
2023-07-15T06:40:06.770Z,52.75
2023-07-15T06:41:08.574Z,52.50
2023-07-15T06:42:10.164Z,53.41
2023-07-15T06:43:11.790Z,51.96
2023-07-15T06:44:13.423Z,52.53
2023-07-15T06:45:15.082Z,52.42
2023-07-15T06:46:16.830Z,51.97
2023-07-15T06:47:18.475Z,52.12
2023-07-15T06:48:20.139Z,51.51
2023-07-15T06:49:21.781Z,52.46
2023-07-15T06:50:23.376Z,51.75
2023-07-15T06:51:25.117Z,52.40
2023-07-15T06:52:26.800Z,52.14
2023-07-15T06:53:28.922Z,51.97
2023-07-15T06:54:31.626Z,52.40
2023-07-15T06:55:33.311Z,52.13
2023-07-15T06:56:34.973Z,52.24
2023-07-15T06:57:36.642Z,52.56
2023-07-15T06:58:38.379Z,51.92
2023-07-15T06:59:40.276Z,52.53
2023-07-15T07:00:42.371Z,51.13
2023-07-15T07:01:44.093Z,50.99
2023-07-15T07:02:46.389Z,51.23
2023-07-15T07:03:48.056Z,51.39
2023-07-15T07:04:49.770Z,51.53
2023-07-15T07:05:51.537Z,51.00
2023-07-15T07:06:53.216Z,50.49
2023-07-15T07:07:55.734Z,50.54
2023-07-15T07:08:57.438Z,51.27
2023-07-15T07:09:59.099Z,50.28
2023-07-15T07:11:00.737Z,50.98
2023-07-15T07:12:02.340Z,50.58
2023-07-15T07:13:05.782Z,51.52
2023-07-15T07:14:07.342Z,51.42
2023-07-15T07:15:09.418Z,51.57
2023-07-15T07:16:11.158Z,51.09
2023-07-15T07:17:12.865Z,51.68
2023-07-15T07:18:14.907Z,51.07
2023-07-15T07:19:16.626Z,52.26
2023-07-15T07:20:18.317Z,50.80
2023-07-15T07:21:19.908Z,50.25
2023-07-15T07:22:21.729Z,50.15
2023-07-15T07:23:23.757Z,50.24
2023-07-15T07:24:25.384Z,50.42
2023-07-15T07:25:27.034Z,51.37
2023-07-15T07:26:28.877Z,50.80
2023-07-15T07:27:30.612Z,49.49
2023-07-15T07:28:45.880Z,50.27
2023-07-15T07:29:47.431Z,49.11
2023-07-15T07:30:49.188Z,48.85
2023-07-15T07:31:53.397Z,48.53
2023-07-15T07:32:55.159Z,49.55
2023-07-15T07:33:56.975Z,49.59
2023-07-15T07:34:59.461Z,49.50
2023-07-15T07:36:01.164Z,48.93
2023-07-15T07:37:04.864Z,48.51
2023-07-15T07:38:06.812Z,47.47
2023-07-15T07:39:08.731Z,47.53
2023-07-15T07:40:13.537Z,48.67
2023-07-15T07:41:17.889Z,49.20
2023-07-15T07:42:20.816Z,49.06
2023-07-15T07:43:22.490Z,48.14
2023-07-15T07:44:24.231Z,49.00
2023-07-15T07:45:25.831Z,49.23
2023-07-15T07:46:28.095Z,50.30
2023-07-15T07:47:29.753Z,49.31
2023-07-15T07:48:31.669Z,48.68
2023-07-15T07:49:35.497Z,50.01
2023-07-15T07:50:37.485Z,51.00
2023-07-15T07:51:39.228Z,50.91
2023-07-15T07:52:40.811Z,50.30
2023-07-15T07:53:42.427Z,51.69
2023-07-15T07:54:44.095Z,49.65
2023-07-15T07:55:47.010Z,49.92
2023-07-15T07:56:48.780Z,50.71
2023-07-15T07:57:50.354Z,50.16
2023-07-15T07:58:58.572Z,49.75
2023-07-15T08:00:00.392Z,51.13
2023-07-15T08:01:02.304Z,48.89
2023-07-15T08:02:04.186Z,49.27
2023-07-15T08:03:05.855Z,51.29
2023-07-15T08:04:07.612Z,49.83
2023-07-15T08:05:09.795Z,50.27
2023-07-15T08:06:13.120Z,51.34
2023-07-15T08:07:15.608Z,52.02
2023-07-15T08:08:17.829Z,51.59
2023-07-15T08:09:19.526Z,52.30
2023-07-15T08:10:21.257Z,52.26
2023-07-15T08:11:23.031Z,51.04
2023-07-15T08:12:24.818Z,51.97
2023-07-15T08:13:26.519Z,51.73
2023-07-15T08:14:28.225Z,51.15
2023-07-15T08:15:30.378Z,51.86
2023-07-15T08:16:37.140Z,51.03
2023-07-15T08:17:38.918Z,50.99
2023-07-15T08:18:40.586Z,50.15
2023-07-15T08:19:42.169Z,49.42
2023-07-15T08:20:43.862Z,48.26
2023-07-15T08:21:45.476Z,48.82
2023-07-15T08:22:47.529Z,47.35
2023-07-15T08:23:49.399Z,47.40
2023-07-15T08:24:50.979Z,46.66
2023-07-15T08:25:54.201Z,48.33
2023-07-15T08:26:55.867Z,47.79
2023-07-15T08:27:57.644Z,48.01
2023-07-15T08:29:02.285Z,48.66
2023-07-15T08:30:05.083Z,47.88
2023-07-15T08:31:06.738Z,46.64
2023-07-15T08:32:08.714Z,47.77
2023-07-15T08:33:11.049Z,47.59
2023-07-15T08:34:12.781Z,48.06
2023-07-15T08:35:14.562Z,47.38
2023-07-15T08:36:16.229Z,48.80
2023-07-15T08:37:17.975Z,48.88
2023-07-15T08:38:19.652Z,48.47
2023-07-15T08:39:21.309Z,49.98
2023-07-15T08:40:25.689Z,50.78
2023-07-15T08:41:27.641Z,49.53
2023-07-15T08:42:31.217Z,48.70
2023-07-15T08:43:33.156Z,47.50
2023-07-15T08:44:34.835Z,47.73
2023-07-15T08:45:37.224Z,48.50
2023-07-15T08:46:39.556Z,48.08
2023-07-15T08:47:44.804Z,47.85
2023-07-15T08:48:46.487Z,48.12
2023-07-15T08:49:50.340Z,47.22
2023-07-15T08:50:56.635Z,47.54
2023-07-15T08:51:58.959Z,47.54
2023-07-15T08:53:02.890Z,48.74
2023-07-15T08:54:07.196Z,48.93
2023-07-15T08:55:09.828Z,48.40
2023-07-15T08:56:12.982Z,47.89
2023-07-15T08:57:19.588Z,48.79
2023-07-15T08:58:21.688Z,48.58
2023-07-15T08:59:24.708Z,47.95
2023-07-15T09:00:27.145Z,48.89
2023-07-15T09:01:28.857Z,50.07
2023-07-15T09:02:30.957Z,48.66
2023-07-15T09:03:32.810Z,46.94
2023-07-15T09:04:35.219Z,46.83
2023-07-15T09:05:36.893Z,47.24
2023-07-15T09:06:38.632Z,47.16
2023-07-15T09:08:10.446Z,46.42
2023-07-15T09:09:14.142Z,44.31
2023-07-15T09:10:15.943Z,44.74
2023-07-15T09:11:17.854Z,44.01
2023-07-15T09:12:23.932Z,43.84
2023-07-15T09:13:30.463Z,42.51
2023-07-15T09:14:32.178Z,45.57
2023-07-15T09:15:34.234Z,44.80
2023-07-15T09:16:40.074Z,45.05
2023-07-15T09:17:50.902Z,44.15
2023-07-15T09:18:52.930Z,43.83
2023-07-15T09:19:54.509Z,44.55
2023-07-15T09:21:17.051Z,45.13
2023-07-15T09:22:20.308Z,43.21
2023-07-15T09:23:22.002Z,43.43
2023-07-15T09:24:23.736Z,44.16
2023-07-15T09:25:26.185Z,44.69
2023-07-15T09:26:29.504Z,44.68
2023-07-15T09:27:31.115Z,45.63
2023-07-15T09:28:32.777Z,45.67
2023-07-15T09:29:34.899Z,45.55
2023-07-15T09:30:40.203Z,46.88
2023-07-15T09:31:41.904Z,44.65
2023-07-15T09:32:43.661Z,45.05
2023-07-15T09:33:45.269Z,44.78
2023-07-15T09:34:51.946Z,44.47
2023-07-15T09:35:53.585Z,44.53
2023-07-15T09:36:55.498Z,44.71
2023-07-15T09:37:57.133Z,44.63
2023-07-15T09:39:13.045Z,44.22
2023-07-15T09:40:14.799Z,44.05
2023-07-15T09:41:20.464Z,43.88
2023-07-15T09:42:22.089Z,44.16
2023-07-15T09:43:23.669Z,44.18
2023-07-15T09:44:39.105Z,44.24
2023-07-15T09:45:42.178Z,44.77
2023-07-15T09:46:44.013Z,44.74
2023-07-15T09:47:45.736Z,45.26
2023-07-15T09:48:52.460Z,45.73
2023-07-15T09:49:54.062Z,46.57
2023-07-15T09:50:56.505Z,46.72
2023-07-15T09:52:02.373Z,46.18
2023-07-15T09:53:05.369Z,45.34
2023-07-15T09:54:07.950Z,44.52
2023-07-15T09:55:09.760Z,43.25
2023-07-15T09:56:12.353Z,43.35
2023-07-15T09:57:15.234Z,44.60
2023-07-15T09:58:24.006Z,45.22
2023-07-15T09:59:29.357Z,43.67
2023-07-15T10:00:35.605Z,44.24
2023-07-15T10:01:41.779Z,43.66
2023-07-15T10:02:45.348Z,42.76
2023-07-15T10:04:17.843Z,43.44
2023-07-15T10:05:20.035Z,43.17
2023-07-15T10:06:22.565Z,42.10
2023-07-15T10:07:24.723Z,42.34
2023-07-15T10:08:26.767Z,42.26
2023-07-15T10:09:29.745Z,43.13
2023-07-15T10:10:31.589Z,42.62
2023-07-15T10:11:34.662Z,43.00
2023-07-15T10:12:37.395Z,42.75
2023-07-15T10:13:39.312Z,42.45
2023-07-15T10:14:42.702Z,43.27
2023-07-15T10:15:45.925Z,43.36
2023-07-15T10:17:11.243Z,44.47
2023-07-15T10:18:19.718Z,44.49
2023-07-15T10:19:42.038Z,45.55
2023-07-15T10:20:47.496Z,45.33
2023-07-15T10:21:59.443Z,45.55
2023-07-15T10:23:03.171Z,44.01
2023-07-15T10:24:13.301Z,46.11
2023-07-15T10:25:16.989Z,43.73
2023-07-15T10:26:22.493Z,44.77
2023-07-15T10:27:31.487Z,43.76
2023-07-15T10:28:38.911Z,44.36
2023-07-15T10:29:41.618Z,44.38
2023-07-15T10:31:13.847Z,44.40
2023-07-15T10:32:20.136Z,44.01
2023-07-15T10:33:25.657Z,44.57
2023-07-15T10:34:36.706Z,44.44
2023-07-15T10:35:41.374Z,44.50
2023-07-15T10:36:51.464Z,44.94
2023-07-15T10:37:53.079Z,43.04
2023-07-15T10:39:13.961Z,43.62
2023-07-15T10:40:56.438Z,43.49
2023-07-15T10:42:08.590Z,44.54
2023-07-15T10:43:10.251Z,43.23
2023-07-15T10:44:23.017Z,43.95
2023-07-15T10:45:42.070Z,43.69
2023-07-15T10:46:48.038Z,43.63
2023-07-15T10:47:49.752Z,43.93
2023-07-15T10:48:51.362Z,43.70
2023-07-15T10:49:53.402Z,42.80
2023-07-15T10:50:58.522Z,42.18
2023-07-15T10:52:00.790Z,42.36
2023-07-15T10:53:22.819Z,43.49
2023-07-15T10:54:29.342Z,42.47
2023-07-15T10:55:31.947Z,42.69
2023-07-15T10:56:33.498Z,42.27
2023-07-15T10:57:52.910Z,43.18
2023-07-15T10:58:58.032Z,42.45
2023-07-15T11:00:09.173Z,42.58
2023-07-15T11:01:14.086Z,41.09
2023-07-15T11:02:16.164Z,40.69
2023-07-15T11:03:20.047Z,41.06
2023-07-15T11:04:22.202Z,40.58
2023-07-15T11:05:23.945Z,42.48
2023-07-15T11:06:26.917Z,40.68
2023-07-15T11:07:29.887Z,40.75
2023-07-15T11:08:32.793Z,40.79
2023-07-15T11:09:38.724Z,40.18
2023-07-15T11:10:40.317Z,40.78
2023-07-15T11:11:41.986Z,39.17
2023-07-15T11:12:43.613Z,40.30
2023-07-15T11:13:46.665Z,40.05
2023-07-15T11:14:48.364Z,39.86
2023-07-15T11:15:49.947Z,39.59
2023-07-15T11:16:52.876Z,39.01
2023-07-15T11:17:54.604Z,38.67
2023-07-15T11:18:56.273Z,39.27
2023-07-15T11:19:57.975Z,39.10
2023-07-15T11:21:01.002Z,40.83
2023-07-15T11:22:08.855Z,39.70
2023-07-15T11:23:10.654Z,39.28
2023-07-15T11:24:13.996Z,39.85
2023-07-15T11:25:15.719Z,39.96
2023-07-15T11:26:17.690Z,39.66
2023-07-15T11:27:19.844Z,40.50
2023-07-15T11:28:21.571Z,41.24
2023-07-15T11:29:25.620Z,39.92
2023-07-15T11:30:38.717Z,39.58
2023-07-15T11:31:45.330Z,39.51
2023-07-15T11:32:56.465Z,40.71
2023-07-15T11:33:59.120Z,40.22
2023-07-15T11:35:11.530Z,40.26
2023-07-15T11:36:13.377Z,39.28
2023-07-15T11:37:15.301Z,39.62
2023-07-15T11:38:28.618Z,39.98
2023-07-15T11:39:30.993Z,39.48
2023-07-15T11:40:34.963Z,41.38
2023-07-15T11:41:40.046Z,39.00
2023-07-15T11:42:41.726Z,39.97
2023-07-15T11:43:43.627Z,41.63
2023-07-15T11:44:45.456Z,41.49
2023-07-15T11:45:47.719Z,41.38
2023-07-15T11:46:49.929Z,39.95
2023-07-15T11:47:55.718Z,39.99
2023-07-15T11:48:59.704Z,39.26
2023-07-15T11:50:01.340Z,39.16
2023-07-15T11:51:10.098Z,39.10
2023-07-15T11:52:20.483Z,39.60
2023-07-15T11:53:32.336Z,38.72
2023-07-15T11:54:34.026Z,37.68
2023-07-15T11:55:38.713Z,38.19
2023-07-15T11:56:42.209Z,38.98
2023-07-15T11:57:44.271Z,39.22
2023-07-15T11:58:45.827Z,39.73
2023-07-15T11:59:50.391Z,38.18
2023-07-15T12:00:52.123Z,38.06
2023-07-15T12:01:54.660Z,38.27
2023-07-15T12:02:57.437Z,37.75
2023-07-15T12:03:59.263Z,36.83
2023-07-15T12:05:01.105Z,37.49
2023-07-15T12:06:03.004Z,37.63
2023-07-15T12:07:05.553Z,37.66
2023-07-15T12:08:13.819Z,37.75
2023-07-15T12:09:18.563Z,39.04
2023-07-15T12:10:21.008Z,38.71
2023-07-15T12:11:22.728Z,39.60
2023-07-15T12:12:24.326Z,38.65
2023-07-15T12:13:27.302Z,39.04
2023-07-15T12:14:32.327Z,38.83
2023-07-15T12:15:33.882Z,39.46
2023-07-15T12:16:37.411Z,39.48
2023-07-15T12:17:39.259Z,39.23
2023-07-15T12:18:40.869Z,39.26
2023-07-15T12:19:43.201Z,38.78
2023-07-15T12:20:44.822Z,39.04
2023-07-15T12:21:46.638Z,39.53
2023-07-15T12:22:48.311Z,39.00
2023-07-15T12:23:51.543Z,39.43
2023-07-15T12:24:53.275Z,39.43
2023-07-15T12:25:54.929Z,39.24
2023-07-15T12:26:56.538Z,39.14
2023-07-15T12:27:58.129Z,38.75
2023-07-15T12:28:59.837Z,39.45
2023-07-15T12:30:04.904Z,39.97
2023-07-15T12:31:07.220Z,39.27
2023-07-15T12:32:09.271Z,39.16
2023-07-15T12:33:11.002Z,38.69
2023-07-15T12:34:12.595Z,38.75
2023-07-15T12:35:16.382Z,39.15
2023-07-15T12:36:19.199Z,39.00
2023-07-15T12:37:21.017Z,38.62
2023-07-15T12:38:22.870Z,38.81
2023-07-15T12:39:24.603Z,39.26
2023-07-15T12:40:26.238Z,38.75
2023-07-15T12:41:27.837Z,38.84
2023-07-15T12:42:29.446Z,39.50
2023-07-15T12:43:31.446Z,39.25
2023-07-15T12:44:32.996Z,39.24
2023-07-15T12:45:34.676Z,39.74
2023-07-15T12:46:36.427Z,40.70
2023-07-15T12:47:38.141Z,39.43
2023-07-15T12:48:40.148Z,40.51
2023-07-15T12:49:41.865Z,39.75
2023-07-15T12:50:43.756Z,38.98
2023-07-15T12:51:45.507Z,39.32
2023-07-15T12:52:47.224Z,38.95
2023-07-15T12:53:48.839Z,39.11
2023-07-15T12:54:50.425Z,40.23
2023-07-15T12:55:55.457Z,38.89
2023-07-15T12:56:57.130Z,39.90
2023-07-15T12:57:58.664Z,40.27
2023-07-15T12:59:00.305Z,40.10
2023-07-15T13:00:02.146Z,39.30
2023-07-15T13:01:03.890Z,40.06
2023-07-15T13:02:06.288Z,39.71
2023-07-15T13:03:08.667Z,40.95
2023-07-15T13:04:10.551Z,39.92
2023-07-15T13:05:12.329Z,39.96
2023-07-15T13:06:14.224Z,39.73
2023-07-15T13:07:17.601Z,40.30
2023-07-15T13:08:19.691Z,39.99
2023-07-15T13:09:21.290Z,39.95
2023-07-15T13:10:23.183Z,39.65
2023-07-15T13:11:24.819Z,39.33
2023-07-15T13:12:26.420Z,39.48
2023-07-15T13:13:28.006Z,38.98
2023-07-15T13:14:29.560Z,39.12
2023-07-15T13:15:31.126Z,39.41
2023-07-15T13:16:32.849Z,38.64
2023-07-15T13:17:34.523Z,39.28
2023-07-15T13:18:36.852Z,39.02
2023-07-15T13:19:38.505Z,38.87
2023-07-15T13:20:40.787Z,39.14
2023-07-15T13:21:42.462Z,38.51
2023-07-15T13:22:45.705Z,38.61
2023-07-15T13:23:47.393Z,38.97
2023-07-15T13:24:51.936Z,38.84
2023-07-15T13:25:53.619Z,39.26
2023-07-15T13:26:55.293Z,39.32
2023-07-15T13:27:57.201Z,39.38
2023-07-15T13:28:59.074Z,39.18
2023-07-15T13:30:01.096Z,39.89
2023-07-15T13:31:02.660Z,39.63
2023-07-15T13:32:04.665Z,40.25
2023-07-15T13:33:07.020Z,39.81